CDT,Max TemperatureF,Mean TemperatureF,Min TemperatureF,Max Dew PointF,MeanDew PointF,Min DewpointF,Max Humidity, Mean Humidity, Min Humidity, Max Sea Level PressureIn, Mean Sea Level PressureIn, Min Sea Level PressureIn, Max VisibilityMiles, Mean VisibilityMiles, Min VisibilityMiles, Max Wind SpeedMPH, Mean Wind SpeedMPH, Max Gust SpeedMPH,PrecipitationIn, CloudCover, Events, WindDirDegrees
2013-4-1,37,32,26,25,19,14,80,60,41,30.25,30.17,30.01,10,10,10,22,12,31,0.00,1,,312
2013-4-2,42,32,23,23,18,10,80,58,27,30.35,30.30,30.26,10,10,10,22,7,28,0.00,0,,299
2013-4-3,46,34,21,27,20,12,86,58,25,30.44,30.37,30.28,10,10,10,12,3,17,0.00,0,,134
2013-4-4,62,45,28,39,28,21,81,57,28,30.28,30.12,30.01,10,10,10,17,5,24,0.00,1,,279
2013-4-5,53,42,30,30,25,18,81,51,24,30.22,30.13,30.00,10,10,7,23,6,29,0.00,1,,91
2013-4-6,66,52,37,50,36,19,82,58,37,29.99,29.74,29.58,10,10,7,23,17,31,0.06,4,Rain,173
2013-4-7,64,50,35,45,38,30,81,65,39,29.97,29.87,29.73,10,9,5,18,9,24,0.00,3,,344
2013-4-8,73,58,44,55,47,39,87,69,41,29.88,29.75,29.63,10,7,1,22,10,26,1.03,4,Rain,360
2013-4-9,57,50,42,52,43,37,87,84,76,29.92,29.86,29.77,10,7,1,20,12,26,1.48,8,Rain,68
2013-4-10,42,38,35,37,35,32,87,85,81,30.05,29.89,29.71,10,7,2,28,12,38,2.13,8,Rain-Snow,58
2013-4-11,48,42,37,43,37,34,87,83,76,29.72,29.62,29.56,10,6,2,22,12,33,0.18,8,Rain,120
2013-4-12,41,38,35,36,32,28,87,77,70,29.88,29.71,29.57,10,9,3,22,12,29,0.00,8,,269
2013-4-13,46,40,33,36,29,27,81,68,53,29.98,29.93,29.88,10,10,5,21,12,25,0.00,7,Snow,283
2013-4-14,75,56,37,52,41,32,82,68,36,29.94,29.70,29.49,10,10,4,25,13,33,0.57,5,Rain,118
2013-4-15,55,48,41,48,39,30,87,75,50,30.03,29.84,29.61,10,10,5,20,8,25,0.14,5,Rain,263
2013-4-16,55,44,33,37,32,27,81,63,38,30.25,30.16,30.01,10,10,10,13,8,18,0.00,2,,344
2013-4-17,48,44,41,45,39,36,87,78,62,30.25,30.04,29.78,10,8,2,33,10,43,3.24,8,Rain,87
2013-4-18,60,48,37,55,43,30,88,84,75,29.78,29.54,29.37,10,7,1,25,14,36,1.02,8,Rain,146
2013-4-19,39,37,35,30,29,27,81,73,65,30.00,29.70,29.53,10,9,3,29,21,39,0.00,7,Snow,279
2013-4-20,46,37,28,28,24,14,86,59,27,30.36,30.22,30.01,10,10,10,13,7,18,0.00,1,,269
2013-4-21,60,48,37,43,36,28,71,62,51,30.39,30.29,30.18,10,10,10,24,13,30,0.00,5,,141
2013-4-22,68,58,48,48,41,36,77,58,32,30.23,30.11,29.97,10,10,10,17,11,25,0.01,6,Rain,166
2013-4-23,53,45,37,46,34,30,87,73,61,30.05,30.02,29.97,10,10,7,21,10,26,0.00,8,,327
2013-4-24,55,44,32,37,26,21,81,54,26,30.11,30.07,30.04,10,10,4,21,10,29,0.10,2,Rain,285
2013-4-25,55,44,33,37,25,5,81,51,14,30.28,30.21,30.06,10,10,10,22,11,30,0.00,1,Rain,269
2013-4-26,69,56,42,48,40,30,77,56,33,30.25,30.20,30.17,10,10,10,24,12,36,0.00,1,,176
2013-4-27,66,55,44,48,44,39,87,65,43,30.25,30.14,30.00,10,10,5,13,5,17,0.00,4,,151
2013-4-28,73,56,39,48,43,36,87,60,29,29.99,29.89,29.80,10,8,2,9,2,,0.00,0,,218
2013-4-29,66,60,53,54,50,46,82,76,64,29.86,29.84,29.80,10,10,7,12,6,,0.00,1,Rain,161
2013-4-30,,,,,,,,,,,,,,,,,,,,,,